Plessisville, Canada
Current Conditions -  °F | °C
As of 11:00 AM on Friday 31 Oct 2014 (Local Time) from CYQB Reporting Station
Overcast Overcast  
Wind Chill:   Ceiling: 5500
Heat Index:   Visibility: 30mi
Dew Point:   Wind: 6mph
Humidity: 76%   Direction: 230°SW
Pressure: 30.06"   Gusts: NA
Location:  46.22°N, 71.77°W
Report Text: CYQB 311500Z 23005KT 30SM FEW035 OVC055 05/01 A3006 RMK SC1SC7 SLP183
Loading
Personal Weather Stations






























Interactive Weather Map
Tropical Storm Tracking
New forecast layout! Learn more

10-Day Weather Forecast

Advertisements
Track Severe Weather on mobile